Data for 06/22/2010

Time Sea-Level Adjusted Pressure Absolute Pressure Temperature Relative Humidity Dew Point   
(mb) (inHg) (mb) (inHg) (C) (F) (%) (C) (F)
00:05 1019 30.09 849 25.07 11 51.7 71 5.9 42.6
00:10 1020 30.12 849 25.07 10.9 51.7 70 5.8 42.4
00:15 1020 30.12 849 25.07 11 51.8 70 5.7 42.3
00:20 1020 30.12 849 25.07 10.9 51.6 72 6 42.8
00:25 1020 30.12 849 25.07 10.6 51 72 5.8 42.4
00:30 1020 30.12 849 25.07 10.5 51 70 5.4 41.8
00:35 1019 30.09 849 25.07 10.7 51.3 70 5.5 41.9
00:40 1019 30.09 849 25.07 10.7 51.3 71 5.7 42.2
00:45 1019 30.09 849 25.07 10.4 50.8 72 5.6 42.1
00:50 1019 30.09 849 25.07 10.2 50.4 72 5.5 41.9
00:55 1020 30.12 849 25.07 10.1 50.2 73 5.4 41.8
01:00 1020 30.12 849 25.07 10 49.9 74 5.5 41.8
01:05 1020 30.12 849 25.07 9.8 49.7 73 5.3 41.5
01:10 1020 30.12 849 25.07 9.9 49.8 73 5.3 41.5
01:15 1020 30.12 849 25.07 9.7 49.4 74 5.4 41.6
01:20 1019 30.09 849 25.07 9.5 49.1 74 5.2 41.4
01:25 1019 30.09 849 25.07 9.5 49.2 74 5.2 41.3
01:30 1019 30.09 849 25.07 9.6 49.3 74 5.2 41.3
01:35 1019 30.09 849 25.07 9.8 49.6 73 5.2 41.3
01:40 1019 30.09 849 25.07 9.8 49.6 73 5.3 41.5
01:45 1020 30.12 849 25.07 9.6 49.3 74 5.2 41.3
01:50 1020 30.12 849 25.07 9.6 49.3 73 5.1 41.1
01:55 1020 30.12 849 25.07 9.7 49.4 73 5.1 41.2
02:00 1020 30.12 849 25.07 9.7 49.4 73 5.1 41.2
02:05 1020 30.12 849 25.07 9.4 49 75 5.2 41.4
02:10 1020 30.12 849 25.07 9 48.2 77 5.1 41.3
02:15 1020 30.12 849 25.07 8.8 47.8 78 5.1 41.1
02:20 1020 30.12 849 25.07 8.6 47.4 78 5 41
02:25 1020 30.12 849 25.07 8.3 47 79 5 40.9
02:30 1020 30.12 849 25.07 8.2 46.8 80 5 41.1
02:35 1020 30.12 849 25.07 8.1 46.6 80 4.9 40.8
02:40 1020 30.12 849 25.07 8.1 46.6 79 4.7 40.4
02:45 1020 30.12 849 25.07 8.4 47.2 77 4.6 40.3
02:50 1020 30.12 849 25.07 8.6 47.4 77 4.7 40.5
02:55 1020 30.12 849 25.07 8.6 47.4 77 4.7 40.5
03:00 1020 30.12 849 25.07 8.5 47.3 77 4.6 40.4
03:05 1020 30.12 849 25.07 8.5 47.3 77 4.6 40.3
03:10 1020 30.12 849 25.07 8.6 47.4 75 4.5 40.1
03:15 1020 30.12 849 25.07 8.6 47.5 77 4.7 40.5
03:20 1020 30.12 849 25.07 8.4 47 78 4.7 40.5
03:25 1020 30.12 849 25.07 8.2 46.7 78 4.6 40.3
03:30 1020 30.12 849 25.07 8.1 46.5 79 4.6 40.2
03:35 1020 30.12 850 25.1 7.9 46.3 79 4.6 40.3
03:40 1020 30.12 850 25.1 7.7 45.9 80 4.5 40.2
03:45 1020 30.12 850 25.1 7.6 45.6 81 4.5 40.1
03:50 1020 30.12 850 25.1 7.5 45.5 82 4.5 40.2
03:55 1021 30.15 850 25.1 7.4 45.4 80 4.2 39.6
04:00 1021 30.15 850 25.1 7.8 46 79 4.4 39.9
04:05 1021 30.15 850 25.1 7.7 45.9 80 4.4 40
04:10 1021 30.15 850 25.1 7.5 45.6 80 4.4 39.9
04:15 1021 30.15 850 25.1 7.7 45.9 79 4.3 39.8
04:20 1021 30.15 850 25.1 7.9 46.1 79 4.4 39.9
04:25 1021 30.15 850 25.1 7.8 46 79 4.3 39.8
04:30 1021 30.15 850 25.1 7.9 46.2 79 4.5 40.1
04:35 1021 30.15 850 25.1 7.8 46.1 80 4.6 40.2
04:40 1021 30.15 850 25.1 7.8 46 79 4.4 40
04:45 1021 30.15 850 25.1 7.8 46.1 79 4.5 40
04:50 1021 30.15 850 25.1 7.9 46.2 79 4.5 40
04:55 1021 30.15 850 25.1 8 46.5 78 4.4 40
05:00 1021 30.15 850 25.1 8 46.5 79 4.6 40.2
05:05 1021 30.15 850 25.1 8 46.3 79 4.5 40.1
05:10 1021 30.15 850 25.1 7.9 46.3 79 4.5 40.2
05:15 1021 30.15 850 25.1 7.9 46.3 79 4.5 40.1
05:20 1021 30.15 850 25.1 8 46.4 78 4.5 40
05:25 1021 30.15 850 25.1 8.1 46.6 78 4.5 40
05:30 1021 30.15 850 25.1 8.2 46.7 77 4.4 40
05:35 1021 30.15 850 25.1 8.3 46.9 77 4.5 40.1
05:40 1021 30.15 850 25.1 8.4 47 76 4.3 39.8
05:45 1021 30.15 850 25.1 8.3 47 76 4.4 40
05:50 1021 30.15 850 25.1 8.3 46.9 77 4.5 40
05:55 1021 30.15 850 25.1 8.2 46.7 77 4.4 39.8
06:00 1021 30.15 850 25.1 8.2 46.8 76 4.3 39.8
06:05 1021 30.15 850 25.1 8.3 46.9 77 4.4 40
06:10 1021 30.15 850 25.1 8.2 46.8 77 4.4 40
06:15 1021 30.15 850 25.1 8 46.3 78 4.3 39.8
06:20 1021 30.15 850 25.1 7.7 45.9 78 4.2 39.6
06:25 1021 30.15 850 25.1 7.8 46.1 77 4.1 39.4
06:30 1021 30.15 850 25.1 8.2 46.8 75 4.1 39.4
06:35 1021 30.15 850 25.1 8.3 46.9 76 4.3 39.7
06:40 1021 30.15 850 25.1 8.4 47.1 76 4.4 40
06:45 1021 30.15 851 25.13 8.6 47.5 74 4.3 39.8
06:50 1021 30.15 851 25.13 8.8 47.8 74 4.4 39.9
06:55 1021 30.15 851 25.13 8.7 47.6 75 4.4 40
07:00 1021 30.15 851 25.13 9.2 48.6 72 4.5 40.2
07:05 1021 30.15 851 25.13 9.7 49.5 70 4.5 40.2
07:10 1021 30.15 851 25.13 10.2 50.4 68 4.7 40.4
07:15 1021 30.15 851 25.13 10.5 50.9 67 4.7 40.4
07:20 1021 30.15 851 25.13 10.7 51.3 67 5 41
07:25 1022 30.18 851 25.13 11.1 52.1 65 4.9 40.8
07:30 1022 30.18 851 25.13 11.6 52.9 64 5.1 41.1
07:35 1022 30.18 851 25.13 11.7 53 63 4.9 40.8
07:40 1022 30.18 851 25.13 12.4 54.3 62 5.3 41.6
07:45 1022 30.18 851 25.13 12.7 54.8 60 5.2 41.3
07:50 1022 30.18 851 25.13 13.1 55.5 60 5.5 41.8
07:55 1022 30.18 851 25.13 13.2 55.8 60 5.8 42.5
08:00 1022 30.18 851 25.13 13.5 56.3 60 6 42.8
08:05 1022 30.18 851 25.13 13.7 56.6 59 5.9 42.6
08:10 1022 30.18 851 25.13 13.8 56.8 58 5.7 42.3
08:15 1022 30.18 851 25.13 13.4 56.2 59 5.7 42.3
08:20 1022 30.18 851 25.13 13.9 57 56 5.3 41.6
08:25 1022 30.18 851 25.13 14.4 57.9 55 5.4 41.8
08:30 1022 30.18 851 25.13 14.6 58.2 56 5.9 42.6
08:35 1022 30.18 851 25.13 14.2 57.6 55 5.4 41.7
08:40 1022 30.18 851 25.13 14.3 57.7 56 5.7 42.2
08:45 1022 30.18 851 25.13 14.3 57.7 55 5.5 41.9
08:50 1022 30.18 851 25.13 13.9 57 56 5.2 41.4
08:55 1022 30.18 851 25.13 14 57.2 56 5.4 41.8
09:00 1022 30.18 851 25.13 14.2 57.6 54 5.1 41.2
09:05 1022 30.18 851 25.13 14.6 58.4 55 5.8 42.5
09:10 1022 30.18 851 25.13 14 57.1 57 5.6 42.1
09:15 1022 30.18 851 25.13 13.8 56.8 58 5.8 42.4
09:20 1022 30.18 851 25.13 13.3 56 59 5.6 42.1
09:25 1022 30.18 851 25.13 13.7 56.7 56 5.3 41.5
09:30 1022 30.18 851 25.13 13.8 56.9 57 5.4 41.8
09:35 1022 30.18 851 25.13 14.6 58.3 54 5.4 41.7
09:40 1022 30.18 851 25.13 15.4 59.8 49 4.7 40.5
09:45 1022 30.18 851 25.13 15.8 60.4 48 4.9 40.9
09:50 1022 30.18 851 25.13 15.5 59.9 47 4.4 39.9
09:55 1022 30.18 851 25.13 15.2 59.3 45 3.4 38
10:00 1022 30.18 851 25.13 15.8 60.4 45 3.9 39
10:05 1022 30.18 851 25.13 16.3 61.4 44 4.1 39.3
10:10 1022 30.18 851 25.13 16 60.8 45 4.2 39.5
10:15 1022 30.18 851 25.13 15.7 60.3 47 4.5 40.1
10:20 1022 30.18 851 25.13 15.8 60.5 46 4.3 39.8
10:25 1022 30.18 851 25.13 15.4 59.7 49 4.8 40.6
10:30 1022 30.18 851 25.13 15.2 59.3 46 3.8 38.9
10:35 1022 30.18 851 25.13 15.2 59.4 47 4 39.3
10:40 1022 30.18 851 25.13 15.5 59.9 48 4.6 40.4
10:45 1022 30.18 851 25.13 15.9 60.6 45 4.2 39.6
10:50 1022 30.18 851 25.13 16.6 62 45 4.6 40.3
10:55 1022 30.18 851 25.13 15.7 60.3 48 4.8 40.6
11:00 1022 30.18 851 25.13 16 60.7 46 4.6 40.2
11:05 1022 30.18 851 25.13 16.4 61.6 45 4.5 40.1
11:10 1022 30.18 851 25.13 15.9 60.6 47 4.6 40.2
11:15 1022 30.18 851 25.13 16.7 62.1 44 4.7 40.4
11:20 1022 30.18 851 25.13 17.4 63.3 42 4.5 40.1
11:25 1022 30.18 851 25.13 17 62.5 45 5.1 41.1
11:30 1022 30.18 851 25.13 16.7 62 44 4.6 40.3
11:35 1022 30.18 851 25.13 16.9 62.3 44 4.7 40.5
11:40 1022 30.18 851 25.13 16.9 62.5 46 5.3 41.6
11:45 1022 30.18 851 25.13 17.6 63.6 42 4.6 40.2
11:50 1022 30.18 851 25.13 17.9 64.2 43 5.1 41.2
11:55 1022 30.18 851 25.13 17.7 63.9 46 6.1 43
12:00 1022 30.18 851 25.13 17.5 63.4 44 5.1 41.1
12:05 1022 30.18 851 25.13 18.2 64.7 43 5.5 42
12:10 1022 30.18 851 25.13 18.3 64.9 41 4.9 40.8
12:15 1022 30.18 851 25.13 18.4 65 42 5.3 41.5
12:20 1022 30.18 851 25.13 18.7 65.6 40 5 41
12:25 1022 30.18 851 25.13 18.2 64.8 41 4.9 40.8
12:30 1022 30.18 851 25.13 18.4 65.2 40 4.7 40.4
12:35 1022 30.18 851 25.13 17.9 64.3 43 5.3 41.5
12:40 1022 30.18 851 25.13 17.8 64 41 4.6 40.3
12:45 1022 30.18 851 25.13 17.6 63.7 41 4.2 39.5
12:50 1022 30.18 851 25.13 18.2 64.7 41 5 40.9
12:55 1022 30.18 851 25.13 17.6 63.7 41 4.2 39.5
13:00 1022 30.18 851 25.13 17.4 63.3 43 4.8 40.6
13:05 1022 30.18 851 25.13 18.5 65.2 40 4.6 40.3
13:10 1022 30.18 851 25.13 18.8 65.8 40 5 41
13:15 1022 30.18 851 25.13 18.2 64.8 39 4.3 39.7
13:20 1022 30.18 851 25.13 18.4 65.1 39 4.4 39.9
13:25 1022 30.18 851 25.13 17.9 64.2 43 5.2 41.3
13:30 1022 30.18 851 25.13 19.1 66.4 40 5.3 41.6
13:35 1022 30.18 851 25.13 19.6 67.3 39 5.4 41.8
13:40 1022 30.18 851 25.13 19.5 67.1 37 4.4 40
13:45 1022 30.18 851 25.13 19.4 67 38 4.9 40.8
13:50 1022 30.18 851 25.13 19.5 67.2 38 5 40.9
13:55 1022 30.18 851 25.13 20 68 38 5.4 41.8
14:00 1022 30.18 851 25.13 19.9 67.7 38 5.4 41.6
14:05 1022 30.18 851 25.13 19.9 67.7 38 5.1 41.2
14:10 1022 30.18 851 25.13 20 67.9 37 4.9 40.8
14:15 1022 30.18 851 25.13 20.5 68.8 36 4.9 40.8
14:20 1021 30.15 851 25.13 20.1 68.2 40 6.4 43.4
14:25 1021 30.15 851 25.13 19.6 67.3 39 5.4 41.7
14:30 1021 30.15 851 25.13 20.5 68.8 36 4.9 40.8
14:35 1021 30.15 851 25.13 20.8 69.4 36 5.4 41.6
14:40 1021 30.15 851 25.13 19.8 67.7 40 5.9 42.5
14:45 1022 30.18 851 25.13 20.2 68.3 38 5.4 41.8
14:50 1021 30.15 851 25.13 20.4 68.6 35 4.4 39.9
14:55 1021 30.15 851 25.13 20.6 69 34 4.4 40
15:00 1022 30.18 851 25.13 20.5 68.8 34 4.3 39.8
15:05 1022 30.18 851 25.13 20.7 69.3 34 4.3 39.7
15:10 1022 30.18 851 25.13 20 68 36 4.7 40.5
15:15 1022 30.18 851 25.13 20 68 39 5.7 42.2
15:20 1022 30.18 851 25.13 19.3 66.7 39 5.2 41.4
15:25 1022 30.18 851 25.13 20.6 69 32 3.7 38.6
15:30 1022 30.18 851 25.13 21.3 70.4 33 4.4 40
15:35 1022 30.18 851 25.13 21.2 70.2 33 4.6 40.3
15:40 1022 30.18 851 25.13 21 69.9 31 3.6 38.6
15:45 1022 30.18 851 25.13 21 69.7 33 4.3 39.8
15:50 1022 30.18 851 25.13 20.7 69.3 34 4.4 39.9
15:55 1022 30.18 851 25.13 21.2 70.1 32 3.9 39.1
16:00 1022 30.18 851 25.13 21.4 70.4 32 4.3 39.8
16:05 1022 30.18 851 25.13 21.2 70.1 31 3.8 38.8
16:10 1022 30.18 851 25.13 21.5 70.7 32 4.3 39.8
16:15 1022 30.18 851 25.13 21 69.8 33 4.3 39.8
16:20 1022 30.18 851 25.13 20.1 68.2 36 4.9 40.8
16:25 1022 30.18 851 25.13 20.1 68.1 37 5 41
16:30 1022 30.18 851 25.13 20.4 68.8 36 4.9 40.8
16:35 1022 30.18 851 25.13 21.1 69.9 33 4.5 40.1
16:40 1022 30.18 851 25.13 21.5 70.6 34 5.2 41.3
16:45 1022 30.18 851 25.13 20.6 69 35 4.6 40.3
16:50 1022 30.18 851 25.13 21.4 70.6 33 4.8 40.6
16:55 1022 30.18 851 25.13 22 71.6 32 4.8 40.6
17:00 1022 30.18 851 25.13 22.3 72.1 32 5 41
17:05 1022 30.18 851 25.13 22.4 72.3 32 5.1 41.2
17:10 1022 30.18 851 25.13 22 71.6 33 5 41.1
17:15 1022 30.18 851 25.13 22 71.6 33 5.1 41.2
17:20 1022 30.18 851 25.13 21.8 71.3 35 5.7 42.3
17:25 1022 30.18 851 25.13 20.7 69.3 37 5.5 41.9
17:30 1022 30.18 851 25.13 20.7 69.3 35 4.8 40.6
17:35 1022 30.18 851 25.13 21.1 69.9 33 4.3 39.8
17:40 1022 30.18 851 25.13 21.5 70.7 33 4.6 40.3
17:45 1022 30.18 851 25.13 21.7 71 32 4.6 40.2
17:50 1022 30.18 851 25.13 21.7 71.1 32 4.7 40.4
17:55 1022 30.18 851 25.13 21.6 70.8 32 4.5 40.1
18:00 1022 30.18 851 25.13 21.9 71.3 33 5 41
18:05 1022 30.18 851 25.13 21.4 70.5 33 4.8 40.7
18:10 1021 30.15 851 25.13 21.1 69.9 35 5.1 41.2
18:15 1021 30.15 851 25.13 21.3 70.4 35 5.5 41.9
18:20 1022 30.18 851 25.13 21 69.9 36 5.4 41.7
18:25 1022 30.18 851 25.13 20.9 69.5 33 4.3 39.8
18:30 1022 30.18 851 25.13 20.3 68.5 36 4.9 40.9
18:35 1022 30.18 851 25.13 20 68 35 4.2 39.6
18:40 1022 30.18 851 25.13 19.8 67.6 34 3.5 38.4
18:45 1022 30.18 851 25.13 19.7 67.5 34 3.6 38.5
18:50 1022 30.18 851 25.13 19.7 67.5 34 3.7 38.7
18:55 1022 30.18 851 25.13 19.3 66.8 44 6.9 44.4
19:00 1022 30.18 852 25.16 17.7 63.8 44 5.5 41.9
19:05 1023 30.21 852 25.16 15.8 60.4 64 9 48.2
19:10 1023 30.21 852 25.16 13 55.3 64 6.3 43.3
19:15 1023 30.21 852 25.16 12.3 54.2 56 4 39.2
19:20 1023 30.21 852 25.16 13 55.4 61 5.7 42.2
19:25 1023 30.21 852 25.16 13.3 55.9 64 6.7 44.1
19:30 1023 30.21 852 25.16 14 57.3 65 7.6 45.6
19:35 1023 30.21 852 25.16 14 57.2 69 8.6 47.4
19:40 1023 30.21 852 25.16 13.2 55.7 63 6.4 43.5
19:45 1023 30.21 852 25.16 13.4 56.1 65 7 44.6
19:50 1023 30.21 852 25.16 13.5 56.3 67 7.5 45.6
19:55 1023 30.21 852 25.16 13.6 56.5 68 7.9 46.3
20:00 1023 30.21 852 25.16 13.9 57 69 8.3 46.9
20:05 1023 30.21 852 25.16 14.3 57.8 66 8.1 46.7
20:10 1023 30.21 852 25.16 14 57.1 76 9.9 49.8
20:15 1023 30.21 852 25.16 13.2 55.7 68 7.5 45.5
20:20 1023 30.21 852 25.16 13.3 56 68 7.5 45.6
20:25 1023 30.21 852 25.16 13.4 56 69 7.9 46.1
20:30 1023 30.21 852 25.16 13.4 56 68 7.6 45.6
20:35 1023 30.21 852 25.16 13.4 56.1 70 8.2 46.7
20:40 1023 30.21 852 25.16 13.3 55.9 73 8.6 47.5
20:45 1023 30.21 852 25.16 12.9 55.2 71 7.7 45.9
20:50 1023 30.21 852 25.16 12.9 55.2 72 8 46.4
20:55 1023 30.21 852 25.16 12.9 55.3 68 7.1 44.9
21:00 1023 30.21 852 25.16 13.1 55.6 70 7.8 46.1
21:05 1023 30.21 852 25.16 13.2 55.7 70 7.8 46.1
21:10 1023 30.21 852 25.16 13.1 55.5 74 8.5 47.3
21:15 1023 30.21 852 25.16 12.9 55.2 74 8.5 47.2
21:20 1023 30.21 853 25.19 12.9 55.2 74 8.5 47.3
21:25 1023 30.21 853 25.19 12.8 55.1 75 8.5 47.2
21:30 1024 30.24 853 25.19 12.8 55.1 76 8.8 47.9
21:35 1024 30.24 853 25.19 12.8 55 77 8.8 47.8
21:40 1024 30.24 853 25.19 12.5 54.5 76 8.4 47.2
21:45 1024 30.24 853 25.19 12.7 54.9 76 8.6 47.6
21:50 1024 30.24 853 25.19 13 55.4 73 8.4 47
21:55 1024 30.24 853 25.19 13.1 55.5 79 9.6 49.2
22:00 1024 30.24 853 25.19 12.3 54.1 81 9.1 48.4
22:05 1024 30.24 853 25.19 11.9 53.5 82 8.9 48.1
22:10 1024 30.24 854 25.22 11.9 53.4 82 8.9 48.1
22:15 1024 30.24 854 25.22 11.9 53.4 80 8.7 47.6
22:20 1024 30.24 854 25.22 12 53.6 77 8.2 46.7
22:25 1025 30.27 854 25.22 12.3 54.1 78 8.5 47.3
22:30 1025 30.27 854 25.22 12.2 53.9 79 8.7 47.6
22:35 1025 30.27 854 25.22 11.9 53.5 81 8.7 47.7
22:40 1025 30.27 854 25.22 11.7 53 83 9 48.2
22:45 1025 30.27 854 25.22 11.2 52.1 85 8.7 47.7
22:50 1025 30.27 854 25.22 11.1 51.9 84 8.5 47.3
22:55 1025 30.27 854 25.22 11 51.7 86 8.7 47.6
23:00 1025 30.27 854 25.22 11 51.8 84 8.4 47.2
23:05 1025 30.27 854 25.22 11.2 52.2 82 8.3 47
23:10 1025 30.27 854 25.22 11.1 52 81 8.1 46.5
23:15 1025 30.27 854 25.22 11 51.8 81 7.9 46.3
23:20 1025 30.27 854 25.22 11.1 52 80 7.9 46.1
23:25 1025 30.27 854 25.22 11.2 52.2 79 7.8 46
23:30 1025 30.27 854 25.22 11.3 52.4 80 8.1 46.5
23:35 1025 30.27 854 25.22 11.4 52.6 79 8 46.4
23:40 1025 30.27 854 25.22 11.7 53 76 7.6 45.7
23:45 1025 30.27 854 25.22 11.3 52.4 82 8.4 47.1
23:50 1025 30.27 854 25.22 10.9 51.7 82 8.1 46.5
23:55 1025 30.27 854 25.22 10.9 51.6 81 7.8 46.1
24:00 1025 30.27 854 25.22 11.2 52.1 80 7.9 46.2